createdAt,value
2019-01-02T00:00:29.310Z,23.57
2019-01-02T00:02:58.993Z,20.57
2019-01-02T00:05:28.899Z,17.23
2019-01-02T00:07:58.720Z,16.13
2019-01-02T00:10:28.585Z,21.70
2019-01-02T00:12:57.803Z,19.10
2019-01-02T00:15:27.960Z,15.73
2019-01-02T00:17:57.449Z,17.50
2019-01-02T00:20:26.734Z,22.30
2019-01-02T00:22:56.457Z,17.43
2019-01-02T00:25:26.094Z,14.30
2019-01-02T00:27:55.773Z,17.20
2019-01-02T00:30:26.662Z,13.90
2019-01-02T00:32:56.559Z,15.23
2019-01-02T00:35:25.938Z,20.73
2019-01-02T00:37:56.005Z,21.47
2019-01-02T00:40:25.309Z,21.20
2019-01-02T00:42:56.975Z,17.37
2019-01-02T00:45:27.504Z,13.43
2019-01-02T00:47:57.139Z,20.80
2019-01-02T00:50:28.059Z,14.30
2019-01-02T00:52:58.043Z,16.70
2019-01-02T00:55:28.786Z,19.70
2019-01-02T00:57:59.244Z,15.77
2019-01-02T01:00:30.926Z,25.30
2019-01-02T01:03:00.974Z,18.13
2019-01-02T01:05:31.238Z,13.63
2019-01-02T01:08:00.712Z,20.67
2019-01-02T01:10:30.399Z,15.10
2019-01-02T01:13:00.846Z,21.90
2019-01-02T01:15:33.389Z,18.93
2019-01-02T01:18:03.105Z,18.33
2019-01-02T01:20:33.205Z,18.10
2019-01-02T01:23:02.977Z,15.07
2019-01-02T01:25:33.388Z,14.23
2019-01-02T01:28:03.285Z,15.03
2019-01-02T01:30:32.856Z,18.53
2019-01-02T01:33:03.207Z,18.47
2019-01-02T01:35:33.188Z,14.30
2019-01-02T01:38:03.392Z,17.53
2019-01-02T01:40:33.957Z,11.60
2019-01-02T01:43:03.598Z,14.27
2019-01-02T01:45:33.935Z,12.03
2019-01-02T01:48:03.332Z,13.47
2019-01-02T01:50:32.581Z,16.00
2019-01-02T01:53:02.845Z,10.20
2019-01-02T01:55:32.885Z,11.13
2019-01-02T01:58:03.153Z,13.40
2019-01-02T02:00:32.410Z,9.53
2019-01-02T02:03:01.601Z,11.10
2019-01-02T02:05:31.830Z,14.80
2019-01-02T02:08:01.798Z,12.10
2019-01-02T02:10:32.842Z,19.27
2019-01-02T02:13:02.435Z,9.77
2019-01-02T02:15:32.237Z,9.13
2019-01-02T02:18:01.881Z,13.13
2019-01-02T02:20:31.526Z,12.53
2019-01-02T02:23:01.516Z,13.97
2019-01-02T02:25:31.478Z,4.57
2019-01-02T02:28:01.409Z,8.00
2019-01-02T02:30:31.060Z,9.13
2019-01-02T02:33:00.747Z,13.97
2019-01-02T02:35:30.030Z,8.70
2019-01-02T02:38:00.351Z,15.73
2019-01-02T02:40:30.016Z,14.00
2019-01-02T02:42:59.262Z,6.73
2019-01-02T02:45:28.837Z,7.87
2019-01-02T02:47:59.028Z,9.40
2019-01-02T02:50:28.893Z,6.20
2019-01-02T02:52:58.442Z,9.77
2019-01-02T02:55:29.062Z,10.37
2019-01-02T02:57:59.065Z,10.67
2019-01-02T03:00:28.704Z,10.80
2019-01-02T03:02:58.076Z,8.43
2019-01-02T03:05:27.779Z,11.50
2019-01-02T03:07:57.366Z,10.63
2019-01-02T03:10:27.666Z,12.03
2019-01-02T03:12:57.731Z,8.60
2019-01-02T03:15:27.722Z,11.53
2019-01-02T03:17:57.767Z,13.87
2019-01-02T03:20:27.386Z,7.73
2019-01-02T03:22:56.665Z,10.17
2019-01-02T03:25:26.738Z,12.73
2019-01-02T03:27:56.906Z,17.40
2019-01-02T03:30:26.501Z,16.43
2019-01-02T03:32:56.397Z,10.77
2019-01-02T03:35:26.400Z,17.33
2019-01-02T03:37:55.855Z,10.53
2019-01-02T03:40:25.541Z,20.33
2019-01-02T03:42:55.968Z,19.17
2019-01-02T03:45:25.257Z,18.23
2019-01-02T03:47:55.235Z,19.73
2019-01-02T03:50:25.474Z,9.87
2019-01-02T03:52:55.643Z,15.00
2019-01-02T03:55:25.723Z,12.90
2019-01-02T03:57:55.420Z,15.27
2019-01-02T04:00:25.006Z,13.63
2019-01-02T04:02:55.107Z,15.37
2019-01-02T04:05:26.118Z,15.40
2019-01-02T04:08:14.528Z,12.60
2019-01-02T04:10:44.790Z,15.20
2019-01-02T04:13:14.195Z,16.07
2019-01-02T04:15:43.591Z,16.23
2019-01-02T04:18:13.935Z,15.43
2019-01-02T04:20:43.212Z,18.47
2019-01-02T04:23:12.942Z,18.90
2019-01-02T04:25:42.471Z,14.33
2019-01-02T04:28:15.432Z,16.20
2019-01-02T04:30:45.439Z,17.77
2019-01-02T04:33:15.489Z,14.10
2019-01-02T04:35:45.522Z,15.00
2019-01-02T04:38:15.471Z,14.53
2019-01-02T04:40:44.666Z,17.57
2019-01-02T04:43:13.914Z,16.27
2019-01-02T04:45:44.250Z,16.23
2019-01-02T04:48:13.867Z,17.43
2019-01-02T04:50:43.843Z,14.10
2019-01-02T04:53:14.051Z,12.10
2019-01-02T04:55:43.711Z,16.90
2019-01-02T04:58:13.121Z,9.73
2019-01-02T05:00:42.372Z,11.40
2019-01-02T05:03:12.156Z,10.47
2019-01-02T05:05:41.399Z,9.43
2019-01-02T05:08:11.423Z,12.20
2019-01-02T05:10:41.801Z,12.40
2019-01-02T05:13:11.450Z,18.73
2019-01-02T05:15:40.865Z,15.03
2019-01-02T05:18:10.552Z,13.87
2019-01-02T05:20:40.678Z,11.93
2019-01-02T05:23:10.394Z,17.07
2019-01-02T05:25:40.118Z,9.80
2019-01-02T05:28:09.797Z,11.00
2019-01-02T05:30:39.118Z,11.03
2019-01-02T05:33:08.856Z,37.97
2019-01-02T05:35:38.486Z,7.10
2019-01-02T05:38:08.190Z,12.60
2019-01-02T05:40:38.186Z,14.67
2019-01-02T05:43:07.854Z,13.17
2019-01-02T05:45:37.105Z,9.60
2019-01-02T05:48:07.165Z,6.60
2019-01-02T05:50:36.762Z,8.43
2019-01-02T05:53:06.520Z,7.67
2019-01-02T05:55:36.611Z,10.47
2019-01-02T05:58:06.238Z,10.47
2019-01-02T06:00:39.822Z,9.50
2019-01-02T06:03:06.564Z,7.30
2019-01-02T06:05:36.156Z,5.47
2019-01-02T06:08:05.371Z,10.53
2019-01-02T06:10:35.711Z,5.53
2019-01-02T06:13:05.303Z,4.20
2019-01-02T06:15:35.000Z,4.37
2019-01-02T06:18:04.424Z,4.27
2019-01-02T06:20:34.151Z,9.33
2019-01-02T06:23:03.416Z,5.90
2019-01-02T06:25:32.987Z,3.20
2019-01-02T06:28:02.246Z,2.13
2019-01-02T06:30:32.031Z,3.33
2019-01-02T06:33:01.588Z,4.07
2019-01-02T06:35:30.998Z,10.13
2019-01-02T06:38:00.271Z,2.60
2019-01-02T06:40:29.487Z,6.23
2019-01-02T06:42:59.207Z,5.20
2019-01-02T06:45:28.457Z,4.93
2019-01-02T06:48:17.151Z,2.07
2019-01-02T06:50:46.760Z,6.63
2019-01-02T06:53:16.899Z,7.00
2019-01-02T06:55:46.542Z,5.77
2019-01-02T06:58:16.262Z,3.53
2019-01-02T07:00:46.246Z,5.47
2019-01-02T07:03:16.518Z,3.70
2019-01-02T07:05:46.117Z,8.27
2019-01-02T07:08:15.400Z,7.57
2019-01-02T07:10:45.443Z,4.30
2019-01-02T07:13:15.097Z,2.80
2019-01-02T07:15:45.392Z,7.10
2019-01-02T07:18:15.004Z,3.67
2019-01-02T07:20:44.382Z,4.07
2019-01-02T07:23:14.505Z,8.13
2019-01-02T07:25:43.960Z,5.40
2019-01-02T07:28:13.607Z,2.90
2019-01-02T07:30:43.178Z,5.03
2019-01-02T07:33:13.154Z,6.60
2019-01-02T07:36:19.883Z,4.30
2019-01-02T07:39:44.503Z,4.03
2019-01-02T07:42:38.988Z,4.20
2019-01-02T07:45:56.083Z,2.60
2019-01-02T07:48:59.731Z,3.07
2019-01-02T07:52:11.575Z,5.27
2019-01-02T07:55:23.134Z,2.30
2019-01-02T07:58:27.525Z,4.37
2019-01-02T08:01:40.279Z,4.60
2019-01-02T08:04:38.100Z,4.40
2019-01-02T08:07:45.895Z,4.80
2019-01-02T08:10:54.161Z,2.93
2019-01-02T08:14:15.920Z,0.60
2019-01-02T08:17:14.968Z,11.63
2019-01-02T08:20:31.555Z,3.07
2019-01-02T08:23:22.384Z,5.63
2019-01-02T08:26:23.492Z,3.70
2019-01-02T08:29:22.697Z,6.43
2019-01-02T08:32:42.276Z,3.23
2019-01-02T08:35:48.518Z,2.83
2019-01-02T08:39:17.435Z,6.03
2019-01-02T08:42:44.208Z,2.53
2019-01-02T08:46:03.918Z,0.80
2019-01-02T08:49:11.966Z,1.60
2019-01-02T08:52:17.437Z,2.40
2019-01-02T08:55:25.315Z,3.07
2019-01-02T08:58:32.944Z,1.70
2019-01-02T09:01:23.126Z,1.00
2019-01-02T09:04:26.845Z,2.10
2019-01-02T09:07:21.314Z,2.93
2019-01-02T09:10:44.738Z,6.77
2019-01-02T09:13:58.234Z,2.60
2019-01-02T09:17:01.963Z,2.60
2019-01-02T09:20:09.765Z,1.37
2019-01-02T09:23:22.255Z,5.30
2019-01-02T09:26:24.011Z,4.93
2019-01-02T09:29:25.460Z,2.83
2019-01-02T09:32:24.461Z,2.30
2019-01-02T09:35:31.137Z,3.30
2019-01-02T09:38:49.239Z,3.53
2019-01-02T09:41:32.426Z,4.87
2019-01-02T09:44:42.657Z,1.47
2019-01-02T09:47:28.054Z,1.93
2019-01-02T09:50:49.142Z,2.20
2019-01-02T09:54:11.846Z,2.57
2019-01-02T09:57:36.279Z,1.07
2019-01-02T10:00:21.690Z,2.13
2019-01-02T10:03:44.857Z,2.13
2019-01-02T10:06:31.090Z,4.90
2019-01-02T10:09:26.631Z,1.33
2019-01-02T10:12:08.868Z,1.60
2019-01-02T10:15:16.227Z,3.17
2019-01-02T10:18:39.258Z,2.20
2019-01-02T10:21:27.938Z,1.43
2019-01-02T10:24:34.478Z,1.13
2019-01-02T10:27:56.440Z,2.10
2019-01-02T10:31:07.044Z,2.50
2019-01-02T10:34:14.404Z,3.80
2019-01-02T10:37:15.149Z,1.03
2019-01-02T10:40:20.323Z,3.87
2019-01-02T10:43:13.246Z,2.07
2019-01-02T10:46:08.835Z,4.20
2019-01-02T10:49:37.760Z,4.40
2019-01-02T10:52:53.584Z,3.03
2019-01-02T10:55:43.101Z,2.43
2019-01-02T10:58:53.576Z,4.63
2019-01-02T11:02:19.139Z,3.10
2019-01-02T11:05:31.886Z,3.10
2019-01-02T11:08:26.490Z,3.33
2019-01-02T11:11:43.511Z,2.37
2019-01-02T11:14:26.135Z,0.80
2019-01-02T11:17:22.563Z,0.70
2019-01-02T11:21:00.694Z,1.80
2019-01-02T11:24:09.909Z,1.30
2019-01-02T11:27:29.582Z,2.33
2019-01-02T11:30:37.900Z,4.30
2019-01-02T11:33:30.415Z,2.03
2019-01-02T11:36:38.213Z,5.60
2019-01-02T11:39:35.034Z,1.97
2019-01-02T11:42:38.381Z,2.90
2019-01-02T11:45:12.488Z,4.50
2019-01-02T11:47:41.713Z,2.93
2019-01-02T11:50:12.923Z,1.30
2019-01-02T11:52:42.324Z,1.37
2019-01-02T11:55:11.550Z,2.03
2019-01-02T11:57:41.261Z,4.80
2019-01-02T12:00:13.916Z,2.93
2019-01-02T12:02:43.299Z,1.63
2019-01-02T12:05:12.685Z,1.37
2019-01-02T12:07:41.941Z,2.57
2019-01-02T12:10:12.736Z,4.93
2019-01-02T12:12:41.995Z,2.00
2019-01-02T12:15:11.828Z,1.00
2019-01-02T12:17:41.517Z,1.83
2019-01-02T12:20:11.842Z,2.20
2019-01-02T12:22:41.203Z,3.37
2019-01-02T12:25:10.443Z,1.90
2019-01-02T12:27:39.853Z,2.73
2019-01-02T12:30:12.561Z,1.97
2019-01-02T12:32:41.916Z,1.20
2019-01-02T12:35:11.147Z,4.83
2019-01-02T12:37:40.353Z,2.37
2019-01-02T12:40:10.107Z,1.60
2019-01-02T12:42:39.753Z,3.13
2019-01-02T12:45:09.384Z,1.50
2019-01-02T12:47:39.079Z,1.47
2019-01-02T12:50:10.410Z,1.23
2019-01-02T12:52:40.090Z,5.50
2019-01-02T12:55:09.726Z,2.73
2019-01-02T12:57:39.797Z,1.57
2019-01-02T13:00:12.816Z,1.43
2019-01-02T13:03:15.596Z,2.70
2019-01-02T13:06:17.971Z,0.80
2019-01-02T13:09:31.465Z,1.00
2019-01-02T13:12:14.427Z,2.80
2019-01-02T13:15:33.739Z,1.23
2019-01-02T13:19:00.217Z,1.70
2019-01-02T13:21:42.121Z,2.50
2019-01-02T13:24:53.675Z,6.10
2019-01-02T13:27:54.384Z,2.00
2019-01-02T13:31:04.029Z,2.10
2019-01-02T13:34:06.591Z,1.40
2019-01-02T13:37:12.806Z,1.40
2019-01-02T13:40:22.165Z,2.90
2019-01-02T13:43:24.338Z,1.23
2019-01-02T13:46:31.226Z,1.23
2019-01-02T13:49:42.926Z,1.40
2019-01-02T13:52:12.783Z,0.77
2019-01-02T13:54:42.286Z,1.40
2019-01-02T13:57:12.755Z,5.17
2019-01-02T13:59:42.026Z,2.40
2019-01-02T14:02:11.725Z,3.57
2019-01-02T14:04:44.167Z,1.10
2019-01-02T14:07:13.876Z,1.97
2019-01-02T14:09:43.511Z,2.10
2019-01-02T14:12:13.284Z,0.83
2019-01-02T14:14:43.812Z,1.63
2019-01-02T14:17:13.178Z,2.57
2019-01-02T14:19:42.976Z,1.23
2019-01-02T14:22:12.985Z,2.43
2019-01-02T14:24:42.551Z,4.30
2019-01-02T14:27:12.185Z,1.97
2019-01-02T14:29:41.505Z,3.23
2019-01-02T14:32:11.248Z,3.03
2019-01-02T14:34:40.682Z,1.67
2019-01-02T14:37:09.958Z,0.93
2019-01-02T14:39:39.596Z,1.20
2019-01-02T14:42:08.866Z,1.27
2019-01-02T14:44:38.660Z,3.33
2019-01-02T14:47:08.711Z,4.20
2019-01-02T14:49:38.235Z,3.27
2019-01-02T14:52:07.815Z,1.23
2019-01-02T14:54:37.099Z,0.90
2019-01-02T14:57:06.757Z,0.80
2019-01-02T14:59:36.234Z,2.83
2019-01-02T15:02:05.621Z,0.70
2019-01-02T15:04:34.975Z,2.57
2019-01-02T15:07:04.548Z,2.90
2019-01-02T15:09:34.863Z,1.10
2019-01-02T15:12:04.450Z,3.03
2019-01-02T15:14:33.845Z,1.00
2019-01-02T15:17:03.059Z,0.50
2019-01-02T15:19:32.397Z,1.10
2019-01-02T15:22:05.004Z,0.90
2019-01-02T15:24:33.202Z,1.87
2019-01-02T15:27:02.844Z,1.00
2019-01-02T15:29:32.182Z,3.17
2019-01-02T15:32:02.325Z,4.50
2019-01-02T15:34:31.933Z,3.63
2019-01-02T15:37:01.514Z,2.20
2019-01-02T15:39:30.804Z,2.63
2019-01-02T15:42:00.456Z,1.73
2019-01-02T15:44:29.823Z,0.83
2019-01-02T15:46:59.066Z,1.20
2019-01-02T15:49:28.636Z,1.27
2019-01-02T15:51:58.799Z,1.30
2019-01-02T15:54:28.718Z,1.13
2019-01-02T15:56:57.967Z,2.20
2019-01-02T15:59:27.892Z,1.77
2019-01-02T16:01:57.526Z,1.87
2019-01-02T16:04:26.749Z,1.13
2019-01-02T16:06:56.330Z,2.80
2019-01-02T16:09:25.737Z,0.93
2019-01-02T16:11:55.295Z,1.30
2019-01-02T16:14:24.558Z,0.70
2019-01-02T16:16:53.901Z,0.73
2019-01-02T16:19:23.501Z,0.83
2019-01-02T16:21:53.316Z,1.23
2019-01-02T16:24:23.036Z,1.23
2019-01-02T16:26:53.413Z,1.07
2019-01-02T16:29:23.657Z,1.70
2019-01-02T16:31:53.820Z,1.20
2019-01-02T16:34:23.584Z,0.70
2019-01-02T16:36:53.355Z,1.53
2019-01-02T16:39:22.978Z,1.90
2019-01-02T16:41:52.775Z,1.47
2019-01-02T16:44:22.452Z,3.63
2019-01-02T16:46:51.955Z,2.17
2019-01-02T16:49:21.842Z,2.93
2019-01-02T16:51:51.403Z,2.10
2019-01-02T16:54:21.555Z,2.30
2019-01-02T16:56:50.961Z,0.60
2019-01-02T16:59:21.043Z,1.00
2019-01-02T17:01:50.689Z,3.77
2019-01-02T17:04:20.754Z,2.07
2019-01-02T17:06:50.094Z,4.40
2019-01-02T17:09:19.715Z,1.60
2019-01-02T17:11:48.928Z,0.60
2019-01-02T17:14:18.162Z,2.63
2019-01-02T17:16:48.208Z,0.63
2019-01-02T17:19:18.166Z,0.93
2019-01-02T17:21:47.746Z,0.70
2019-01-02T17:24:17.741Z,0.70
2019-01-02T17:26:46.993Z,1.63
2019-01-02T17:29:17.843Z,2.10
2019-01-02T17:31:47.525Z,1.10
2019-01-02T17:34:17.496Z,1.70
2019-01-02T17:36:47.504Z,3.10
2019-01-02T17:39:16.727Z,1.60
2019-01-02T17:41:46.355Z,1.67
2019-01-02T17:44:15.862Z,0.70
2019-01-02T17:46:45.104Z,2.50
2019-01-02T17:49:14.628Z,0.60
2019-01-02T17:51:44.392Z,1.17
2019-01-02T17:54:14.517Z,0.90
2019-01-02T17:56:44.269Z,3.90
2019-01-02T17:59:13.683Z,0.47
2019-01-02T18:01:43.467Z,2.80
2019-01-02T18:04:13.513Z,2.20
2019-01-02T18:06:43.108Z,4.67
2019-01-02T18:09:12.534Z,2.20
2019-01-02T18:11:41.773Z,1.50
2019-01-02T18:14:11.879Z,1.10
2019-01-02T18:16:41.439Z,4.33
2019-01-02T18:19:11.082Z,1.10
2019-01-02T18:21:41.152Z,0.73
2019-01-02T18:24:10.382Z,1.87
2019-01-02T18:26:39.988Z,3.00
2019-01-02T18:29:09.541Z,1.87
2019-01-02T18:31:39.162Z,0.83
2019-01-02T18:34:08.798Z,1.80
2019-01-02T18:36:38.840Z,1.50
2019-01-02T18:39:09.470Z,1.60
2019-01-02T18:41:39.538Z,1.23
2019-01-02T18:44:09.125Z,4.40
2019-01-02T18:46:38.739Z,2.73
2019-01-02T18:49:08.386Z,2.90
2019-01-02T18:51:37.674Z,2.77
2019-01-02T18:54:06.954Z,1.60
2019-01-02T18:56:36.499Z,2.30
2019-01-02T18:59:06.451Z,2.80
2019-01-02T19:01:37.227Z,1.70
2019-01-02T19:04:06.738Z,1.33
2019-01-02T19:06:36.718Z,1.23
2019-01-02T19:09:07.785Z,1.03
2019-01-02T19:11:37.807Z,3.30
2019-01-02T19:14:07.073Z,1.70
2019-01-02T19:16:37.178Z,3.20
2019-01-02T19:19:07.127Z,1.90
2019-01-02T19:21:36.706Z,3.70
2019-01-02T19:24:06.207Z,2.07
2019-01-02T19:26:35.887Z,0.70
2019-01-02T19:29:05.362Z,3.03
2019-01-02T19:31:35.029Z,2.87
2019-01-02T19:34:04.790Z,1.80
2019-01-02T19:36:34.464Z,1.87
2019-01-02T19:39:05.118Z,1.60
2019-01-02T19:41:35.186Z,4.10
2019-01-02T19:44:04.867Z,2.30
2019-01-02T19:46:34.541Z,1.37
2019-01-02T19:49:03.811Z,1.90
2019-01-02T19:51:33.182Z,1.13
2019-01-02T19:54:03.314Z,4.07
2019-01-02T19:56:32.939Z,3.43
2019-01-02T19:59:02.888Z,1.83
2019-01-02T20:01:32.934Z,1.83
2019-01-02T20:04:02.834Z,1.40
2019-01-02T20:06:33.292Z,1.70
2019-01-02T20:09:03.583Z,1.80
2019-01-02T20:11:32.825Z,1.30
2019-01-02T20:14:02.435Z,20.00
2019-01-02T20:16:31.693Z,25.33
2019-01-02T20:19:02.139Z,30.20
2019-01-02T20:21:31.565Z,15.00
2019-01-02T20:24:01.194Z,23.07
2019-01-02T20:26:31.973Z,29.60
2019-01-02T20:29:01.342Z,12.47
2019-01-02T20:31:30.880Z,7.57
2019-01-02T20:34:00.946Z,13.20
2019-01-02T20:36:30.298Z,6.53
2019-01-02T20:38:59.648Z,6.67
2019-01-02T20:41:29.628Z,9.70
2019-01-02T20:43:58.929Z,7.83
2019-01-02T20:46:29.269Z,4.53
2019-01-02T20:48:59.076Z,3.63
2019-01-02T20:51:29.022Z,3.73
2019-01-02T20:53:58.927Z,3.57
2019-01-02T20:56:28.754Z,5.50
2019-01-02T20:58:58.047Z,4.50
2019-01-02T21:01:27.253Z,7.20
2019-01-02T21:03:57.291Z,3.10
2019-01-02T21:06:27.236Z,2.83
2019-01-02T21:08:57.554Z,3.50
2019-01-02T21:11:27.602Z,3.90
2019-01-02T21:13:57.017Z,2.40
2019-01-02T21:16:27.234Z,2.57
2019-01-02T21:18:56.791Z,3.17
2019-01-02T21:21:27.280Z,1.77
2019-01-02T21:23:56.831Z,3.80
2019-01-02T21:26:27.273Z,2.70
2019-01-02T21:28:56.526Z,2.33
2019-01-02T21:31:26.545Z,2.03
2019-01-02T21:33:56.672Z,3.57
2019-01-02T21:36:26.471Z,2.27
2019-01-02T21:38:55.836Z,5.30
2019-01-02T21:41:25.500Z,2.27
2019-01-02T21:43:56.559Z,6.37
2019-01-02T21:46:26.508Z,3.07
2019-01-02T21:48:55.978Z,2.77
2019-01-02T21:51:25.226Z,3.40
2019-01-02T21:53:54.434Z,3.80
2019-01-02T21:56:23.885Z,11.50
2019-01-02T21:58:53.867Z,14.30
2019-01-02T22:01:23.294Z,7.33
2019-01-02T22:03:53.358Z,4.17
2019-01-02T22:06:22.978Z,5.07
2019-01-02T22:08:52.270Z,7.40
2019-01-02T22:11:22.467Z,2.87
2019-01-02T22:13:52.400Z,3.83
2019-01-02T22:16:22.197Z,1.83
2019-01-02T22:18:51.907Z,1.93
2019-01-02T22:21:21.184Z,2.67
2019-01-02T22:23:51.599Z,1.93
2019-01-02T22:26:40.073Z,3.57
2019-01-02T22:29:09.303Z,5.00
2019-01-02T22:31:39.094Z,4.20
2019-01-02T22:34:09.214Z,3.07
2019-01-02T22:36:38.795Z,3.70
2019-01-02T22:39:08.462Z,4.33
2019-01-02T22:41:37.724Z,5.93
2019-01-02T22:44:07.429Z,10.47
2019-01-02T22:46:37.079Z,8.13
2019-01-02T22:49:07.194Z,6.47
2019-01-02T22:51:36.769Z,7.97
2019-01-02T22:54:06.077Z,3.53
2019-01-02T22:56:35.952Z,2.80
2019-01-02T22:59:05.476Z,4.03
2019-01-02T23:01:48.695Z,2.77
2019-01-02T23:04:40.083Z,3.50
2019-01-02T23:07:27.005Z,2.53
2019-01-02T23:10:14.334Z,3.33
2019-01-02T23:13:02.471Z,2.70
2019-01-02T23:15:59.999Z,2.70
2019-01-02T23:19:00.908Z,2.40
2019-01-02T23:21:47.973Z,4.30
2019-01-02T23:24:51.258Z,2.97
2019-01-02T23:27:39.434Z,5.37
2019-01-02T23:30:19.844Z,3.37
2019-01-02T23:33:11.278Z,2.70
2019-01-02T23:35:58.528Z,2.60
2019-01-02T23:38:55.942Z,4.70
2019-01-02T23:41:39.163Z,3.70
2019-01-02T23:44:33.492Z,3.33
2019-01-02T23:47:37.377Z,3.70
2019-01-02T23:50:25.747Z,3.23
2019-01-02T23:53:14.260Z,4.20
2019-01-02T23:56:18.255Z,3.67
2019-01-02T23:59:19.466Z,3.07
